createdAt,value
2018-09-07T00:02:04.961Z,14.50
2018-09-07T00:04:33.290Z,16.00
2018-09-07T00:07:01.557Z,15.77
2018-09-07T00:09:29.911Z,16.80
2018-09-07T00:11:58.245Z,15.37
2018-09-07T00:14:26.809Z,15.67
2018-09-07T00:16:55.105Z,15.80
2018-09-07T00:19:23.485Z,16.13
2018-09-07T00:21:51.789Z,16.27
2018-09-07T00:24:20.673Z,16.07
2018-09-07T00:26:49.976Z,15.60
2018-09-07T00:29:18.349Z,15.03
2018-09-07T00:31:46.753Z,17.50
2018-09-07T00:34:15.021Z,15.67
2018-09-07T00:36:43.498Z,15.90
2018-09-07T00:39:11.766Z,16.87
2018-09-07T00:41:40.050Z,17.10
2018-09-07T00:44:08.333Z,15.30
2018-09-07T00:46:36.710Z,15.87
2018-09-07T00:49:04.982Z,16.17
2018-09-07T00:51:33.300Z,17.20
2018-09-07T00:54:01.573Z,16.23
2018-09-07T00:56:29.912Z,16.80
2018-09-07T00:58:58.211Z,16.50
2018-09-07T01:01:26.528Z,15.40
2018-09-07T01:03:54.821Z,17.20
2018-09-07T01:06:23.117Z,17.27
2018-09-07T01:08:51.389Z,17.00
2018-09-07T01:11:19.897Z,18.10
2018-09-07T01:13:48.188Z,14.97
2018-09-07T01:16:16.737Z,15.90
2018-09-07T01:18:47.487Z,16.10
2018-09-07T01:21:15.790Z,17.23
2018-09-07T01:23:44.102Z,15.50
2018-09-07T01:26:12.526Z,19.13
2018-09-07T01:28:40.868Z,17.20
2018-09-07T01:31:09.377Z,16.53
2018-09-07T01:33:37.719Z,19.67
2018-09-07T01:36:06.004Z,17.83
2018-09-07T01:38:36.114Z,16.87
2018-09-07T01:41:05.257Z,17.70
2018-09-07T01:43:33.581Z,17.63
2018-09-07T01:46:02.819Z,16.23
2018-09-07T01:48:31.482Z,17.73
2018-09-07T01:50:59.757Z,18.23
2018-09-07T01:53:28.055Z,16.60
2018-09-07T01:55:56.341Z,17.10
2018-09-07T01:58:25.721Z,17.87
2018-09-07T02:00:54.228Z,18.27
2018-09-07T02:03:32.813Z,18.10
2018-09-07T02:06:01.107Z,16.63
2018-09-07T02:08:30.640Z,18.80
2018-09-07T02:11:00.026Z,18.37
2018-09-07T02:13:29.556Z,17.20
2018-09-07T02:15:57.909Z,16.00
2018-09-07T02:18:27.234Z,17.83
2018-09-07T02:20:55.570Z,17.87
2018-09-07T02:23:23.947Z,19.10
2018-09-07T02:25:52.265Z,17.13
2018-09-07T02:28:20.627Z,16.07
2018-09-07T02:30:49.092Z,18.23
2018-09-07T02:33:18.471Z,17.30
2018-09-07T02:35:46.796Z,17.90
2018-09-07T02:38:15.084Z,18.40
2018-09-07T02:40:43.806Z,18.20
2018-09-07T02:43:12.111Z,17.10
2018-09-07T02:45:40.417Z,21.13
2018-09-07T02:48:09.778Z,18.23
2018-09-07T02:50:38.089Z,17.97
2018-09-07T02:53:07.777Z,18.07
2018-09-07T02:55:36.081Z,19.53
2018-09-07T02:58:04.445Z,19.07
2018-09-07T03:00:32.780Z,19.97
2018-09-07T03:03:01.090Z,20.53
2018-09-07T03:05:29.573Z,19.50
2018-09-07T03:07:57.850Z,18.63
2018-09-07T03:10:26.120Z,19.20
2018-09-07T03:12:54.416Z,18.50
2018-09-07T03:15:22.714Z,18.43
2018-09-07T03:17:51.112Z,19.43
2018-09-07T03:20:19.394Z,20.03
2018-09-07T03:22:47.713Z,20.03
2018-09-07T03:25:16.055Z,21.00
2018-09-07T03:27:44.365Z,20.33
2018-09-07T03:30:12.645Z,21.10
2018-09-07T03:32:40.990Z,21.33
2018-09-07T03:35:09.270Z,19.57
2018-09-07T03:37:37.600Z,20.80
2018-09-07T03:40:05.897Z,20.87
2018-09-07T03:42:34.243Z,19.93
2018-09-07T03:45:02.500Z,21.20
2018-09-07T03:47:30.897Z,21.23
2018-09-07T03:49:59.165Z,21.90
2018-09-07T03:52:27.469Z,21.30
2018-09-07T03:54:55.749Z,24.20
2018-09-07T03:57:25.117Z,24.70
2018-09-07T03:59:53.457Z,26.07
2018-09-07T04:02:22.245Z,23.30
2018-09-07T04:04:50.522Z,26.23
2018-09-07T04:07:18.885Z,24.90
2018-09-07T04:09:47.183Z,25.40
2018-09-07T04:12:15.566Z,27.30
2018-09-07T04:14:43.941Z,28.13
2018-09-07T04:17:12.337Z,28.20
2018-09-07T04:19:40.645Z,28.00
2018-09-07T04:22:10.088Z,28.40
2018-09-07T04:24:38.402Z,31.00
2018-09-07T04:27:06.736Z,26.30
2018-09-07T04:29:35.059Z,29.80
2018-09-07T04:32:03.335Z,30.33
2018-09-07T04:34:31.642Z,31.90
2018-09-07T04:36:59.945Z,31.10
2018-09-07T04:39:29.266Z,32.90
2018-09-07T04:41:57.577Z,29.40
2018-09-07T04:44:25.921Z,31.90
2018-09-07T04:46:54.197Z,33.40
2018-09-07T04:49:22.499Z,31.53
2018-09-07T04:51:50.789Z,32.50
2018-09-07T04:54:19.105Z,33.87
2018-09-07T04:56:47.384Z,36.67
2018-09-07T04:59:15.777Z,34.97
2018-09-07T05:01:44.062Z,35.07
2018-09-07T05:04:12.329Z,36.37
2018-09-07T05:06:40.677Z,36.87
2018-09-07T05:09:09.781Z,37.57
2018-09-07T05:11:38.073Z,36.40
2018-09-07T05:14:06.778Z,37.67
2018-09-07T05:16:35.153Z,37.63
2018-09-07T05:19:03.441Z,40.83
2018-09-07T05:21:31.964Z,40.60
2018-09-07T05:24:00.273Z,40.63
2018-09-07T05:26:28.581Z,41.03
2018-09-07T05:28:56.913Z,42.17
2018-09-07T05:31:25.293Z,45.93
2018-09-07T05:33:53.513Z,42.23
2018-09-07T05:36:21.834Z,45.57
2018-09-07T05:38:51.209Z,42.60
2018-09-07T05:41:19.529Z,43.17
2018-09-07T05:43:48.063Z,44.27
2018-09-07T05:46:16.379Z,45.20
2018-09-07T05:48:44.639Z,45.90
2018-09-07T05:51:12.941Z,45.57
2018-09-07T05:53:41.321Z,46.40
2018-09-07T05:56:09.612Z,46.20
2018-09-07T05:58:38.008Z,46.37
2018-09-07T06:01:06.737Z,48.50
2018-09-07T06:03:35.050Z,52.27
2018-09-07T06:06:03.523Z,52.17
2018-09-07T06:08:31.914Z,52.57
2018-09-07T06:11:01.205Z,54.87
2018-09-07T06:13:29.555Z,52.07
2018-09-07T06:15:57.982Z,54.00
2018-09-07T06:18:26.209Z,55.70
2018-09-07T06:20:54.539Z,53.70
2018-09-07T06:23:22.866Z,56.73
2018-09-07T06:25:51.280Z,55.47
2018-09-07T06:28:19.629Z,55.40
2018-09-07T06:30:47.909Z,54.70
2018-09-07T06:33:17.309Z,52.57
2018-09-07T06:35:45.504Z,52.10
2018-09-07T06:38:14.864Z,54.50
2018-09-07T06:40:43.137Z,50.27
2018-09-07T06:43:11.487Z,49.60
2018-09-07T06:45:39.767Z,50.00
2018-09-07T06:48:08.092Z,48.77
2018-09-07T06:50:36.461Z,48.77
2018-09-07T06:53:04.746Z,46.73
2018-09-07T06:55:33.061Z,47.23
2018-09-07T06:58:01.378Z,45.50
2018-09-07T07:00:29.702Z,46.57
2018-09-07T07:02:58.054Z,46.50
2018-09-07T07:05:26.301Z,46.50
2018-09-07T07:07:54.576Z,47.07
2018-09-07T07:10:23.014Z,46.83
2018-09-07T07:12:51.289Z,46.37
2018-09-07T07:15:19.655Z,42.50
2018-09-07T07:17:47.949Z,41.73
2018-09-07T07:20:16.273Z,45.00
2018-09-07T07:22:44.541Z,43.90
2018-09-07T07:25:12.844Z,43.23
2018-09-07T07:27:42.151Z,43.27
2018-09-07T07:30:10.446Z,42.50
2018-09-07T07:32:38.710Z,43.43
2018-09-07T07:35:07.112Z,40.10
2018-09-07T07:37:35.397Z,45.23
2018-09-07T07:40:03.717Z,40.47
2018-09-07T07:42:32.021Z,40.93
2018-09-07T07:45:00.302Z,41.20
2018-09-07T07:47:29.700Z,41.10
2018-09-07T07:49:57.978Z,40.30
2018-09-07T07:52:26.282Z,37.50
2018-09-07T07:54:54.612Z,37.83
2018-09-07T07:57:22.916Z,33.50
2018-09-07T07:59:51.262Z,31.77
2018-09-07T08:02:19.565Z,30.53
2018-09-07T08:04:48.861Z,30.07
2018-09-07T08:07:17.185Z,31.93
2018-09-07T08:09:45.469Z,32.23
2018-09-07T08:12:13.789Z,28.03
2018-09-07T08:14:42.102Z,30.63
2018-09-07T08:17:10.421Z,26.53
2018-09-07T08:19:38.697Z,27.93
2018-09-07T08:22:07.122Z,27.53
2018-09-07T08:25:38.707Z,27.07
2018-09-07T08:28:07.205Z,27.17
2018-09-07T08:30:35.483Z,24.10
2018-09-07T08:33:03.984Z,24.70
2018-09-07T08:35:32.133Z,25.77
2018-09-07T08:38:00.502Z,23.30
2018-09-07T08:40:28.899Z,23.43
2018-09-07T08:42:57.537Z,21.40
2018-09-07T08:45:25.861Z,22.37
2018-09-07T08:47:54.179Z,20.50
2018-09-07T08:50:25.543Z,19.70
2018-09-07T08:52:55.837Z,20.10
2018-09-07T08:55:24.145Z,19.20
2018-09-07T08:57:52.465Z,18.00
2018-09-07T09:00:21.043Z,16.63
2018-09-07T09:02:49.749Z,15.17
2018-09-07T09:05:18.077Z,14.10
2018-09-07T09:07:46.372Z,14.03
2018-09-07T09:10:14.657Z,15.00
2018-09-07T09:12:42.935Z,13.20
2018-09-07T09:15:11.261Z,13.37
2018-09-07T09:17:39.541Z,13.60
2018-09-07T09:20:07.857Z,14.40
2018-09-07T09:22:36.128Z,14.30
2018-09-07T09:25:04.429Z,14.13
2018-09-07T09:27:32.921Z,6.30
2018-09-07T09:30:01.228Z,6.03
2018-09-07T09:32:29.580Z,3.80
2018-09-07T09:34:57.973Z,3.57
2018-09-07T09:37:26.264Z,3.60
2018-09-07T09:39:54.729Z,3.20
2018-09-07T09:42:23.126Z,3.40
2018-09-07T09:44:51.472Z,3.17
2018-09-07T09:47:19.895Z,2.80
2018-09-07T09:49:48.177Z,2.83
2018-09-07T09:52:16.484Z,3.47
2018-09-07T09:54:44.762Z,3.57
2018-09-07T09:57:13.198Z,3.80
2018-09-07T09:59:41.637Z,3.47
2018-09-07T10:02:15.311Z,3.83
2018-09-07T10:04:43.741Z,3.13
2018-09-07T10:07:12.064Z,3.47
2018-09-07T10:09:40.371Z,2.60
2018-09-07T10:12:08.716Z,2.93
2018-09-07T10:14:37.018Z,2.93
2018-09-07T10:17:05.328Z,2.63
2018-09-07T10:19:33.573Z,2.73
2018-09-07T10:22:02.121Z,3.00
2018-09-07T10:24:30.429Z,3.17
2018-09-07T10:26:58.833Z,3.10
2018-09-07T10:29:27.123Z,2.50
2018-09-07T10:31:55.436Z,2.70
2018-09-07T10:34:23.697Z,3.03
2018-09-07T10:36:52.013Z,2.60
2018-09-07T10:39:20.313Z,2.97
2018-09-07T10:41:48.602Z,3.30
2018-09-07T10:44:16.906Z,3.83
2018-09-07T10:46:45.153Z,3.47
2018-09-07T10:49:13.442Z,2.80
2018-09-07T10:51:41.709Z,2.60
2018-09-07T10:54:11.039Z,3.50
2018-09-07T10:56:39.294Z,3.37
2018-09-07T10:59:07.632Z,2.70
2018-09-07T11:01:35.874Z,3.20
2018-09-07T11:04:04.178Z,3.07
2018-09-07T11:06:32.564Z,3.80
2018-09-07T11:09:00.845Z,3.00
2018-09-07T11:11:29.113Z,3.57
2018-09-07T11:13:57.484Z,3.00
2018-09-07T11:16:25.733Z,3.43
2018-09-07T11:18:54.033Z,4.10
2018-09-07T11:21:22.305Z,4.93
2018-09-07T11:23:50.636Z,5.23
2018-09-07T11:26:18.921Z,5.23
2018-09-07T11:28:47.174Z,5.70
2018-09-07T11:31:15.453Z,5.10
2018-09-07T11:33:43.723Z,7.10
2018-09-07T11:36:12.016Z,7.50
2018-09-07T11:38:40.313Z,6.03
2018-09-07T11:41:08.629Z,7.00
2018-09-07T11:43:37.119Z,7.90
2018-09-07T11:46:05.729Z,7.60
2018-09-07T11:48:34.121Z,6.80
2018-09-07T11:51:02.429Z,6.60
2018-09-07T11:53:30.682Z,6.23
2018-09-07T11:55:59.030Z,4.60
2018-09-07T11:58:27.487Z,4.03
2018-09-07T12:00:55.717Z,3.57
2018-09-07T12:03:23.985Z,3.70
2018-09-07T12:05:52.281Z,4.80
2018-09-07T12:08:20.745Z,4.40
2018-09-07T12:10:49.067Z,5.07
2018-09-07T12:13:17.586Z,4.20
2018-09-07T12:15:45.604Z,5.00
2018-09-07T12:18:13.965Z,4.20
2018-09-07T12:20:42.265Z,4.00
2018-09-07T12:23:10.613Z,3.50
2018-09-07T12:25:38.925Z,4.73
2018-09-07T12:28:07.264Z,4.87
2018-09-07T12:30:35.522Z,3.80
2018-09-07T12:33:06.920Z,4.13
2018-09-07T12:35:37.485Z,3.20
2018-09-07T12:38:05.985Z,4.03
2018-09-07T12:40:34.441Z,3.60
2018-09-07T12:43:03.501Z,3.73
2018-09-07T12:45:32.214Z,4.13
2018-09-07T12:48:01.345Z,3.60
2018-09-07T12:50:30.573Z,4.50
2018-09-07T12:52:58.910Z,4.50
2018-09-07T12:55:27.201Z,3.60
2018-09-07T12:57:55.493Z,3.73
2018-09-07T13:00:23.785Z,4.07
2018-09-07T13:02:52.117Z,3.00
2018-09-07T13:05:20.509Z,4.20
2018-09-07T13:07:49.205Z,3.67
2018-09-07T13:10:17.526Z,2.90
2018-09-07T13:12:45.849Z,3.30
2018-09-07T13:15:14.175Z,2.47
2018-09-07T13:17:42.489Z,3.13
2018-09-07T13:20:10.874Z,3.30
2018-09-07T13:22:39.150Z,3.37
2018-09-07T13:25:07.681Z,3.00
2018-09-07T13:27:35.957Z,3.43
2018-09-07T13:30:04.289Z,3.23
2018-09-07T13:32:32.573Z,2.80
2018-09-07T13:35:00.882Z,2.83
2018-09-07T13:37:29.189Z,2.77
2018-09-07T13:39:57.513Z,2.40
2018-09-07T13:42:25.792Z,2.90
2018-09-07T13:44:54.141Z,2.80
2018-09-07T13:47:22.418Z,2.70
2018-09-07T13:49:50.732Z,3.07
2018-09-07T13:52:18.993Z,2.50
2018-09-07T13:54:47.323Z,3.23
2018-09-07T13:57:15.556Z,2.67
2018-09-07T13:59:43.880Z,3.60
2018-09-07T14:02:12.201Z,4.53
2018-09-07T14:04:41.573Z,6.00
2018-09-07T14:07:09.868Z,6.50
2018-09-07T14:09:38.146Z,5.60
2018-09-07T14:12:06.501Z,5.93
2018-09-07T14:14:34.785Z,6.57
2018-09-07T14:17:03.160Z,6.80
2018-09-07T14:19:31.433Z,6.80
2018-09-07T14:21:59.850Z,8.80
2018-09-07T14:24:28.126Z,9.57
2018-09-07T14:26:56.877Z,11.80
2018-09-07T14:29:25.253Z,11.10
2018-09-07T14:31:53.564Z,10.40
2018-09-07T14:34:21.845Z,12.17
2018-09-07T14:36:50.157Z,12.23
2018-09-07T14:39:18.437Z,10.80
2018-09-07T14:41:46.741Z,12.97
2018-09-07T14:44:15.053Z,11.87
2018-09-07T14:46:43.597Z,11.30
2018-09-07T14:49:11.952Z,12.17
2018-09-07T14:51:40.189Z,11.40
2018-09-07T14:54:08.565Z,11.97
2018-09-07T14:56:36.852Z,11.90
2018-09-07T14:59:05.218Z,10.47
2018-09-07T15:01:33.504Z,12.73
2018-09-07T15:04:01.851Z,11.93
2018-09-07T15:06:30.201Z,13.50
2018-09-07T15:08:58.525Z,13.80
2018-09-07T15:11:26.787Z,12.70
2018-09-07T15:13:55.098Z,11.53
2018-09-07T15:16:24.424Z,10.33
2018-09-07T15:18:52.837Z,13.57
2018-09-07T15:21:21.185Z,12.70
2018-09-07T15:23:49.469Z,13.00
2018-09-07T15:26:17.764Z,11.20
2018-09-07T15:28:46.061Z,10.83
2018-09-07T15:31:15.601Z,10.37
2018-09-07T15:33:43.909Z,9.77
2018-09-07T15:36:12.189Z,9.17
2018-09-07T15:38:40.461Z,10.00
2018-09-07T15:41:08.889Z,8.17
2018-09-07T15:43:37.158Z,7.83
2018-09-07T15:46:05.495Z,4.73
2018-09-07T15:48:33.769Z,3.73
2018-09-07T15:51:02.083Z,3.43
2018-09-07T15:53:30.373Z,3.17
2018-09-07T15:55:59.078Z,2.93
2018-09-07T15:58:27.409Z,2.77
2018-09-07T16:00:55.793Z,2.10
2018-09-07T16:03:24.051Z,2.00
2018-09-07T16:05:52.345Z,1.50
2018-09-07T16:08:20.623Z,1.60
2018-09-07T16:12:13.326Z,1.50
2018-09-07T16:14:41.605Z,1.80
2018-09-07T16:17:09.932Z,2.00
2018-09-07T16:19:38.265Z,1.50
2018-09-07T16:22:06.717Z,1.70
2018-09-07T16:24:34.997Z,1.53
2018-09-07T16:27:03.318Z,1.87
2018-09-07T16:29:31.593Z,1.63
2018-09-07T16:32:01.137Z,1.83
2018-09-07T16:34:29.413Z,1.77
2018-09-07T16:36:59.750Z,1.67
2018-09-07T16:39:28.013Z,1.37
2018-09-07T16:41:56.320Z,1.43
2018-09-07T16:44:25.662Z,1.40
2018-09-07T16:46:53.996Z,2.40
2018-09-07T16:49:22.285Z,2.08
2018-09-07T16:51:50.675Z,1.60
2018-09-07T16:54:18.939Z,1.63
2018-09-07T16:56:48.302Z,2.23
2018-09-07T16:59:16.595Z,1.77
2018-09-07T17:01:44.929Z,1.30
2018-09-07T17:04:13.262Z,1.50
2018-09-07T17:06:42.627Z,1.57
2018-09-07T17:09:10.881Z,1.90
2018-09-07T17:11:39.163Z,1.70
2018-09-07T17:14:07.461Z,1.80
2018-09-07T17:16:35.757Z,2.23
2018-09-07T17:19:05.425Z,1.70
2018-09-07T17:21:33.777Z,2.03
2018-09-07T17:24:02.157Z,2.10
2018-09-07T17:26:30.432Z,1.80
2018-09-07T17:28:58.720Z,2.47
2018-09-07T17:31:26.990Z,2.17
2018-09-07T17:33:55.278Z,2.30
2018-09-07T17:36:23.545Z,2.37
2018-09-07T17:38:51.824Z,2.20
2018-09-07T17:41:20.106Z,3.50
2018-09-07T17:43:48.423Z,2.40
2018-09-07T17:46:16.700Z,2.30
2018-09-07T17:48:45.177Z,2.53
2018-09-07T17:51:13.433Z,3.20
2018-09-07T17:53:41.749Z,2.60
2018-09-07T17:56:10.127Z,2.40
2018-09-07T17:58:38.478Z,2.20
2018-09-07T18:01:06.840Z,2.90
2018-09-07T18:03:35.126Z,2.00
2018-09-07T18:06:04.395Z,2.33
2018-09-07T18:08:32.665Z,2.57
2018-09-07T18:11:00.973Z,2.50
2018-09-07T18:13:29.241Z,3.43
2018-09-07T18:15:57.553Z,2.20
2018-09-07T18:18:25.822Z,2.70
2018-09-07T18:20:54.148Z,2.20
2018-09-07T18:23:22.403Z,2.60
2018-09-07T18:29:55.488Z,2.63
2018-09-07T18:32:23.799Z,2.40
2018-09-07T18:34:52.155Z,3.20
2018-09-07T18:37:20.413Z,2.90
2018-09-07T18:39:49.584Z,3.33
2018-09-07T18:42:17.934Z,3.13
2018-09-07T18:44:46.213Z,3.57
2018-09-07T18:47:15.882Z,3.17
2018-09-07T18:49:44.198Z,3.20
2018-09-07T18:52:12.494Z,3.50
2018-09-07T18:54:40.773Z,3.17
2018-09-07T18:57:09.074Z,3.13
2018-09-07T18:59:37.361Z,3.67
2018-09-07T19:02:07.210Z,3.77
2018-09-07T19:04:35.493Z,3.60
2018-09-07T19:07:03.806Z,3.43
2018-09-07T19:09:32.085Z,3.90
2018-09-07T19:12:00.388Z,3.60
2018-09-07T19:14:28.849Z,4.07
2018-09-07T19:16:57.213Z,3.70
2018-09-07T19:19:25.570Z,3.23
2018-09-07T19:21:53.837Z,3.10
2018-09-07T19:24:22.132Z,3.30
2018-09-07T19:26:51.457Z,2.50
2018-09-07T19:29:19.749Z,2.80
2018-09-07T19:31:49.141Z,3.20
2018-09-07T19:34:17.418Z,3.40
2018-09-07T19:36:45.691Z,3.97
2018-09-07T19:39:13.993Z,3.77
2018-09-07T19:41:42.265Z,3.10
2018-09-07T19:44:10.599Z,3.50
2018-09-07T19:46:39.913Z,3.60
2018-09-07T19:49:08.295Z,3.93
2018-09-07T19:51:36.533Z,3.80
2018-09-07T19:54:04.944Z,3.60
2018-09-07T19:56:33.233Z,3.50
2018-09-07T19:59:02.641Z,3.50
2018-09-07T20:01:30.913Z,2.87
2018-09-07T20:04:00.366Z,2.50
2018-09-07T20:06:28.654Z,3.53
2018-09-07T20:08:56.997Z,3.93
2018-09-07T20:11:25.376Z,2.90
2018-09-07T20:13:53.737Z,2.90
2018-09-07T20:16:22.017Z,2.90
2018-09-07T20:18:52.320Z,3.10
2018-09-07T20:21:22.648Z,3.37
2018-09-07T20:23:50.933Z,4.27
2018-09-07T20:26:19.887Z,3.03
2018-09-07T20:28:48.169Z,3.37
2018-09-07T20:31:17.485Z,4.17
2018-09-07T20:33:45.806Z,3.30
2018-09-07T20:36:14.133Z,4.83
2018-09-07T20:38:42.438Z,4.83
2018-09-07T20:41:10.734Z,5.77
2018-09-07T20:43:39.038Z,6.37
2018-09-07T20:46:08.337Z,6.30
2018-09-07T20:48:36.601Z,6.87
2018-09-07T20:51:04.950Z,6.90
2018-09-07T20:53:33.233Z,5.00
2018-09-07T20:56:01.554Z,5.23
2018-09-07T20:58:29.831Z,5.50
2018-09-07T21:00:58.146Z,4.37
2018-09-07T21:03:27.404Z,4.17
2018-09-07T21:05:55.683Z,3.90
2018-09-07T21:08:23.956Z,3.33
2018-09-07T21:10:53.307Z,4.10
2018-09-07T21:13:22.666Z,3.53
2018-09-07T21:15:50.945Z,3.33
2018-09-07T21:18:19.265Z,4.30
2018-09-07T21:20:48.629Z,3.97
2018-09-07T21:23:16.934Z,4.40
2018-09-07T21:25:45.313Z,3.70
2018-09-07T21:28:13.577Z,4.00
2018-09-07T21:30:41.941Z,4.40
2018-09-07T21:33:10.241Z,3.83
2018-09-07T21:35:38.509Z,4.17
2018-09-07T21:38:06.828Z,3.30
2018-09-07T21:40:35.113Z,3.87
2018-09-07T21:43:03.437Z,3.40
2018-09-07T21:45:31.729Z,3.80
2018-09-07T21:48:00.022Z,3.17
2018-09-07T21:50:28.354Z,4.57
2018-09-07T21:52:56.665Z,4.03
2018-09-07T21:55:25.137Z,3.57
2018-09-07T21:57:53.462Z,5.00
2018-09-07T22:00:21.803Z,4.10
2018-09-07T22:02:50.115Z,3.60
2018-09-07T22:05:18.389Z,3.40
2018-09-07T22:07:54.042Z,3.83
2018-09-07T22:10:22.349Z,2.90
2018-09-07T22:12:50.698Z,2.97
2018-09-07T22:15:20.033Z,2.90
2018-09-07T22:17:48.378Z,3.10
2018-09-07T22:20:16.692Z,3.50
2018-09-07T22:22:44.974Z,3.30
2018-09-07T22:25:13.265Z,2.97
2018-09-07T22:27:41.788Z,3.10
2018-09-07T22:30:10.167Z,2.70
2018-09-07T22:32:38.451Z,2.10
2018-09-07T22:35:06.760Z,3.20
2018-09-07T22:37:35.033Z,3.00
2018-09-07T22:40:03.514Z,2.37
2018-09-07T22:42:31.988Z,3.27
2018-09-07T22:45:00.313Z,3.13
2018-09-07T22:47:28.855Z,2.80
2018-09-07T22:49:58.283Z,2.50
2018-09-07T22:52:26.574Z,3.17
2018-09-07T22:54:54.844Z,2.83
2018-09-07T22:57:23.142Z,3.20
2018-09-07T22:59:51.433Z,3.17
2018-09-07T23:02:20.172Z,3.13
2018-09-07T23:04:48.626Z,3.03
2018-09-07T23:07:17.093Z,3.63
2018-09-07T23:09:45.389Z,2.80
2018-09-07T23:12:13.758Z,3.37
2018-09-07T23:14:42.026Z,3.53
2018-09-07T23:17:10.323Z,4.10
2018-09-07T23:19:39.619Z,3.40
2018-09-07T23:22:10.082Z,3.47
2018-09-07T23:24:38.357Z,3.03
2018-09-07T23:27:06.648Z,4.50
2018-09-07T23:29:34.955Z,3.13
2018-09-07T23:32:05.302Z,4.20
2018-09-07T23:34:33.565Z,3.33
2018-09-07T23:37:01.860Z,3.70
2018-09-07T23:39:30.134Z,4.10
2018-09-07T23:41:58.421Z,3.87
2018-09-07T23:44:26.724Z,3.27
2018-09-07T23:46:55.041Z,3.23
2018-09-07T23:49:23.330Z,3.73
2018-09-07T23:51:51.744Z,3.63
2018-09-07T23:54:20.011Z,3.33
2018-09-07T23:56:48.261Z,3.60
2018-09-07T23:59:16.591Z,3.53
